Terminal Aerodrome Forecast
Issued by NWS

Home | Current Version | Previous Version | Text Only | Print | Product List | Glossary On
Versions: 1 2 3 4 5 6 7 8 9 10 11 12 13 14 15 16 17 18 19
000
FTAK31 PAJN 180000 AAA
TAFAWG
TAF AMD
PAWG 180058Z 1801/1824 VRB03KT P6SM VCSH BKN025 OVC040
      TEMPO 1801/1803 4SM -SHRA BR BKN015
     FM180300 VRB04KT P6SM BKN040 BKN200
     FM181200 11007KT P6SM VCSH SCT015 BKN050 OVC100
     FM181500 11012KT P6SM -RA SCT020 OVC050
     FM182100 12018G26KT 6SM -RA BR BKN030 OVC045
      AMD LTD TO CLD VIS AND WIND 1806/1815=

USA.gov is the U.S. government's official web portal to all federal, state and local government web resources and services.